Time;durP1;ratioP1;P1;durP2;ratioP2;P2;SDS_P1;SDS_P2;PMS_P1;PMS_P2;Temp;Humidity;BMP_temperature;BMP_pressure;BME280_temperature;BME280_humidity;BME280_pressure;Samples;Min_cycle;Max_cycle;Signal;HPM_P1;HPM_P2
2020/12/03 00:02:13;;;;;;;56.22;30.95;;;;;;;;;;5035216;28;20171;-66
2020/12/03 00:04:38;;;;;;;54.65;30.48;;;;;;;;;;5034495;28;20078;-64
2020/12/03 00:07:04;;;;;;;56.88;31.23;;;;;;;;;;5035786;28;20061;-65
2020/12/03 00:09:30;;;;;;;58.92;31.17;;;;;;;;;;5034529;28;20044;-65
2020/12/03 00:11:57;;;;;;;56.35;31.45;;;;;;;;;;5034289;28;20070;-65
2020/12/03 00:14:23;;;;;;;61.20;33.35;;;;;;;;;;5035615;28;20486;-65
2020/12/03 00:16:49;;;;;;;57.85;31.45;;;;;;;;;;5035344;28;20029;-65
2020/12/03 00:19:15;;;;;;;54.03;31.67;;;;;;;;;;5033869;28;20030;-65
2020/12/03 00:21:41;;;;;;;53.42;29.83;;;;;;;;;;5035264;28;20017;-66
2020/12/03 00:24:07;;;;;;;51.97;29.65;;;;;;;;;;5034781;28;20083;-65
2020/12/03 00:26:34;;;;;;;54.20;31.50;;;;;;;;;;5035474;28;20393;-65
2020/12/03 00:29:00;;;;;;;55.75;32.70;;;;;;;;;;5033879;28;20072;-67
2020/12/03 00:31:25;;;;;;;55.65;33.60;;;;;;;;;;5034813;28;20026;-67
2020/12/03 00:33:51;;;;;;;51.95;31.17;;;;;;;;;;5035303;28;20029;-67
2020/12/03 00:36:16;;;;;;;59.00;33.65;;;;;;;;;;5035197;28;20024;-67
2020/12/03 00:38:42;;;;;;;57.45;33.42;;;;;;;;;;5034906;28;20388;-66
2020/12/03 00:41:08;;;;;;;58.88;32.65;;;;;;;;;;5035077;28;20100;-67
2020/12/03 00:43:34;;;;;;;58.13;36.15;;;;;;;;;;5033835;28;20076;-66
2020/12/03 00:45:59;;;;;;;58.25;34.40;;;;;;;;;;5033522;28;20010;-67
2020/12/03 00:48:24;;;;;;;64.10;37.00;;;;;;;;;;5033350;28;20037;-67
2020/12/03 00:50:50;;;;;;;65.07;37.47;;;;;;;;;;5033541;28;20091;-67
2020/12/03 00:53:17;;;;;;;67.93;36.00;;;;;;;;;;5034806;28;20365;-66
2020/12/03 00:55:44;;;;;;;63.47;35.10;;;;;;;;;;5033653;28;20551;-66
2020/12/03 00:58:11;;;;;;;69.43;37.47;;;;;;;;;;5033425;28;20368;-66
2020/12/03 01:00:37;;;;;;;65.65;36.83;;;;;;;;;;5034520;28;20026;-66
2020/12/03 01:03:03;;;;;;;65.97;36.90;;;;;;;;;;5034260;28;20044;-66
2020/12/03 01:05:29;;;;;;;71.03;37.97;;;;;;;;;;5034270;28;20423;-66
2020/12/03 01:07:54;;;;;;;68.13;37.17;;;;;;;;;;5034678;28;20395;-66
2020/12/03 01:10:22;;;;;;;64.45;35.95;;;;;;;;;;5034351;28;20112;-66
2020/12/03 01:12:48;;;;;;;69.03;39.10;;;;;;;;;;5034176;28;20053;-66
2020/12/03 01:15:15;;;;;;;72.82;38.95;;;;;;;;;;5034339;28;20072;-66
2020/12/03 01:17:41;;;;;;;71.70;39.88;;;;;;;;;;5034423;28;20380;-65
2020/12/03 01:20:08;;;;;;;72.20;40.75;;;;;;;;;;5034131;28;20475;-65
2020/12/03 01:22:34;;;;;;;73.38;41.17;;;;;;;;;;5032846;28;20411;-66
2020/12/03 01:24:59;;;;;;;73.03;39.85;;;;;;;;;;5033776;28;20059;-66
2020/12/03 01:27:25;;;;;;;70.32;37.72;;;;;;;;;;5034366;28;20032;-65
2020/12/03 01:29:50;;;;;;;69.22;36.85;;;;;;;;;;5033932;28;20451;-65
2020/12/03 01:32:16;;;;;;;71.07;39.42;;;;;;;;;;5033877;28;20507;-64
2020/12/03 01:34:41;;;;;;;69.50;38.80;;;;;;;;;;5032777;28;20022;-64
2020/12/03 01:37:07;;;;;;;71.70;38.53;;;;;;;;;;5033896;28;20472;-65
2020/12/03 01:39:32;;;;;;;72.05;39.15;;;;;;;;;;5033823;28;20075;-64
2020/12/03 01:41:58;;;;;;;72.38;39.38;;;;;;;;;;5033687;28;20061;-65
2020/12/03 01:44:43;;;;;;;73.38;39.95;;;;;;;;;;5033897;28;20021;-65
2020/12/03 01:47:12;;;;;;;70.85;38.67;;;;;;;;;;5033873;28;20523;-65
2020/12/03 01:49:38;;;;;;;74.18;38.35;;;;;;;;;;5033626;28;20029;-66
2020/12/03 01:52:03;;;;;;;74.13;38.65;;;;;;;;;;5033700;28;20026;-65
2020/12/03 01:54:30;;;;;;;75.72;40.92;;;;;;;;;;5033511;28;20049;-65
2020/12/03 01:57:00;;;;;;;79.80;42.55;;;;;;;;;;5033583;28;20044;-64
2020/12/03 01:59:28;;;;;;;76.18;40.03;;;;;;;;;;5033519;28;20048;-64
2020/12/03 02:01:55;;;;;;;81.80;40.85;;;;;;;;;;5032902;28;20038;-65
2020/12/03 02:04:21;;;;;;;73.78;40.00;;;;;;;;;;5033756;28;20116;-65
2020/12/03 02:06:48;;;;;;;69.85;38.20;;;;;;;;;;5033536;28;20116;-65
2020/12/03 02:09:14;;;;;;;74.00;40.20;;;;;;;;;;5033416;28;20049;-65
2020/12/03 02:11:39;;;;;;;83.32;42.15;;;;;;;;;;5033449;28;20052;-60
2020/12/03 02:14:07;;;;;;;82.07;42.47;;;;;;;;;;5033680;28;20013;-60
2020/12/03 02:16:40;;;;;;;75.63;40.13;;;;;;;;;;5033758;28;20074;-60
2020/12/03 02:19:20;;;;;;;78.85;40.67;;;;;;;;;;5033328;28;20026;-60
2020/12/03 02:21:46;;;;;;;;;;;;;;;;;;5016044;28;20056;-61
2020/12/03 02:24:12;;;;;;;79.95;39.33;;;;;;;;;;5033719;28;19909;-60
2020/12/03 02:26:45;;;;;;;77.25;42.65;;;;;;;;;;5031995;28;20033;-60
2020/12/03 02:29:15;;;;;;;81.82;40.22;;;;;;;;;;5032183;28;20108;-61
2020/12/03 02:31:40;;;;;;;80.18;41.85;;;;;;;;;;5033370;28;20104;-61
2020/12/03 02:34:06;;;;;;;76.47;40.47;;;;;;;;;;5033206;28;20063;-61
2020/12/03 02:36:31;;;;;;;73.53;39.03;;;;;;;;;;5033119;28;20376;-61
2020/12/03 02:38:57;;;;;;;78.55;40.70;;;;;;;;;;5033417;28;20175;-61
2020/12/03 02:41:22;;;;;;;73.80;39.95;;;;;;;;;;5033437;28;20491;-61
2020/12/03 02:43:48;;;;;;;74.43;41.08;;;;;;;;;;5033287;28;20040;-61
2020/12/03 02:46:13;;;;;;;80.43;42.00;;;;;;;;;;5035008;28;20170;-61
2020/12/03 02:48:38;;;;;;;80.40;40.67;;;;;;;;;;5036850;28;20032;-61
2020/12/03 02:51:04;;;;;;;81.72;42.25;;;;;;;;;;5037024;28;20064;-61
2020/12/03 02:53:30;;;;;;;77.93;41.80;;;;;;;;;;5036894;28;20029;-61
2020/12/03 02:55:55;;;;;;;76.40;41.08;;;;;;;;;;5036804;28;20025;-61
2020/12/03 02:58:20;;;;;;;75.93;39.58;;;;;;;;;;5036878;28;20029;-61
2020/12/03 03:00:46;;;;;;;77.38;39.63;;;;;;;;;;5037055;28;20479;-61
2020/12/03 03:03:12;;;;;;;73.60;38.72;;;;;;;;;;5036207;28;20099;-61
2020/12/03 03:05:37;;;;;;;75.35;38.67;;;;;;;;;;5035727;28;20032;-61
2020/12/03 03:08:03;;;;;;;71.80;37.03;;;;;;;;;;5036818;28;20052;-60
2020/12/03 03:10:28;;;;;;;65.82;36.35;;;;;;;;;;5018764;28;20483;-60
2020/12/03 03:12:54;;;;;;;76.13;39.25;;;;;;;;;;5036646;28;20025;-61
2020/12/03 03:15:19;;;;;;;74.15;38.85;;;;;;;;;;5036685;28;20021;-61
2020/12/03 03:17:45;;;;;;;72.45;39.45;;;;;;;;;;5036361;28;20044;-61
2020/12/03 03:20:11;;;;;;;73.65;38.72;;;;;;;;;;5036416;28;20151;-61
2020/12/03 03:22:38;;;;;;;98.90;54.05;;;;;;;;;;5035233;28;20033;-61
2020/12/03 03:25:04;;;;;;;83.55;42.55;;;;;;;;;;5036553;28;20022;-60
2020/12/03 03:27:29;;;;;;;71.28;39.30;;;;;;;;;;5035263;28;20498;-60
2020/12/03 03:29:55;;;;;;;71.82;37.90;;;;;;;;;;5036364;28;20028;-60
2020/12/03 03:32:20;;;;;;;72.90;39.53;;;;;;;;;;5036756;28;20040;-60
2020/12/03 03:34:45;;;;;;;70.13;37.72;;;;;;;;;;5035264;28;20414;-60
2020/12/03 03:37:11;;;;;;;69.63;37.33;;;;;;;;;;5035943;28;20045;-60
2020/12/03 03:39:39;;;;;;;68.75;38.47;;;;;;;;;;5034705;28;20021;-61
2020/12/03 03:42:04;;;;;;;73.13;40.10;;;;;;;;;;5036208;28;20049;-61
2020/12/03 03:44:30;;;;;;;67.28;39.05;;;;;;;;;;5036108;28;20487;-60
2020/12/03 03:46:55;;;;;;;71.63;41.15;;;;;;;;;;5035990;28;20103;-61
2020/12/03 03:49:21;;;;;;;73.75;39.75;;;;;;;;;;5036001;28;20033;-61
2020/12/03 03:51:46;;;;;;;72.53;39.40;;;;;;;;;;5035851;28;20032;-60
2020/12/03 03:54:12;;;;;;;67.43;38.78;;;;;;;;;;5035972;28;20475;-60
2020/12/03 03:56:37;;;;;;;72.45;39.80;;;;;;;;;;5033871;28;20064;-59
2020/12/03 03:59:03;;;;;;;70.95;40.58;;;;;;;;;;5034930;28;20025;-61
2020/12/03 04:01:29;;;;;;;76.82;41.63;;;;;;;;;;5035776;28;20112;-61
2020/12/03 04:03:54;;;;;;;77.90;43.65;;;;;;;;;;5035481;28;20476;-60
2020/12/03 04:06:19;;;;;;;77.53;42.28;;;;;;;;;;5034134;28;20037;-61
2020/12/03 04:08:45;;;;;;;77.15;43.72;;;;;;;;;;5035365;28;20017;-61
2020/12/03 04:11:11;;;;;;;79.78;42.28;;;;;;;;;;5035795;28;20041;-61
2020/12/03 04:13:44;;;;;;;70.47;39.95;;;;;;;;;;5034288;28;20064;-61
2020/12/03 04:16:11;;;;;;;72.95;40.95;;;;;;;;;;5035319;28;20487;-61
2020/12/03 04:18:37;;;;;;;69.65;39.65;;;;;;;;;;5035346;28;20047;-61
2020/12/03 04:21:04;;;;;;;73.90;39.58;;;;;;;;;;5035271;28;20536;-61
2020/12/03 04:23:30;;;;;;;75.38;42.45;;;;;;;;;;5035770;28;20072;-61
2020/12/03 04:25:55;;;;;;;73.78;40.72;;;;;;;;;;5035292;28;20041;-61
2020/12/03 04:28:20;;;;;;;72.18;41.20;;;;;;;;;;5035343;28;20025;-61
2020/12/03 04:30:46;;;;;;;76.32;44.53;;;;;;;;;;5035023;28;20113;-61
2020/12/03 04:33:12;;;;;;;73.28;40.95;;;;;;;;;;5035192;28;20547;-62
2020/12/03 04:35:37;;;;;;;72.53;39.15;;;;;;;;;;5035200;28;20108;-61
2020/12/03 04:38:04;;;;;;;73.00;40.33;;;;;;;;;;5035113;28;20475;-61
2020/12/03 04:40:31;;;;;;;70.45;41.65;;;;;;;;;;5033660;28;20526;-61
2020/12/03 04:42:59;;;;;;;73.95;42.05;;;;;;;;;;5035214;28;20096;-61
2020/12/03 04:45:25;;;;;;;80.53;43.60;;;;;;;;;;5034768;28;20029;-61
2020/12/03 04:47:58;;;;;;;64.80;39.53;;;;;;;;;;5035131;28;20078;-61
2020/12/03 04:50:42;;;;;;;70.95;42.03;;;;;;;;;;5035238;28;20037;-60
2020/12/03 04:53:31;;;;;;;73.85;42.30;;;;;;;;;;5034904;28;20063;-60
2020/12/03 04:56:03;;;;;;;74.90;41.40;;;;;;;;;;5034965;28;20030;-61
2020/12/03 04:58:28;;;;;;;69.30;41.20;;;;;;;;;;5034676;28;20029;-60
2020/12/03 05:01:13;;;;;;;70.38;40.40;;;;;;;;;;5033626;28;20010;-60
2020/12/03 05:03:38;;;;;;;68.75;40.03;;;;;;;;;;5034450;28;20042;-61
2020/12/03 05:06:14;;;;;;;66.03;38.20;;;;;;;;;;5034229;28;20037;-61
2020/12/03 05:08:44;;;;;;;73.43;42.53;;;;;;;;;;5034156;28;20047;-62
2020/12/03 05:11:22;;;;;;;73.82;42.00;;;;;;;;;;5016858;28;20053;-61
2020/12/03 05:13:50;;;;;;;69.47;38.83;;;;;;;;;;5033444;28;20038;-61
2020/12/03 05:16:17;;;;;;;65.55;36.47;;;;;;;;;;5034364;28;20118;-60
2020/12/03 05:18:42;;;;;;;76.28;39.17;;;;;;;;;;5033953;28;20048;-60
2020/12/03 05:21:11;;;;;;;75.50;39.83;;;;;;;;;;5041310;28;20022;-61
2020/12/03 05:23:37;;;;;;;90.55;45.70;;;;;;;;;;5051589;28;20105;-61
2020/12/03 05:26:11;;;;;;;82.35;45.35;;;;;;;;;;5053729;28;20096;-61
2020/12/03 05:28:42;;;;;;;90.50;45.67;;;;;;;;;;5053755;28;20021;-61
2020/12/03 05:31:10;;;;;;;83.13;42.20;;;;;;;;;;5051879;28;20055;-62
2020/12/03 05:33:36;;;;;;;92.65;47.60;;;;;;;;;;5054059;28;20020;-62
2020/12/03 05:36:01;;;;;;;73.68;42.90;;;;;;;;;;5054062;28;20509;-62
2020/12/03 05:38:27;;;;;;;78.25;46.28;;;;;;;;;;5053678;28;20375;-62
2020/12/03 05:41:03;;;;;;;79.47;47.45;;;;;;;;;;5053604;28;20479;-61
2020/12/03 05:43:29;;;;;;;79.70;46.40;;;;;;;;;;5053768;28;20033;-61
2020/12/03 05:45:56;;;;;;;81.40;47.05;;;;;;;;;;5053297;28;20368;-60
2020/12/03 05:48:22;;;;;;;78.68;45.03;;;;;;;;;;5053477;28;20033;-61
2020/12/03 05:50:48;;;;;;;76.97;44.97;;;;;;;;;;5053068;28;20028;-60
2020/12/03 05:53:13;;;;;;;80.60;46.42;;;;;;;;;;5052900;28;20064;-60
2020/12/03 05:55:39;;;;;;;84.47;46.90;;;;;;;;;;5053144;28;20025;-60
2020/12/03 05:58:12;;;;;;;83.60;45.88;;;;;;;;;;5053029;28;20037;-60
2020/12/03 06:00:39;;;;;;;78.15;45.15;;;;;;;;;;5052897;28;20039;-61
2020/12/03 06:03:10;;;;;;;81.55;49.40;;;;;;;;;;5052850;28;20472;-61
2020/12/03 06:05:51;;;;;;;74.80;43.25;;;;;;;;;;5053208;28;20051;-61
2020/12/03 06:08:25;;;;;;;78.45;45.28;;;;;;;;;;5053436;28;20040;-61
2020/12/03 06:11:00;;;;;;;92.03;50.25;;;;;;;;;;5053263;28;20036;-61
2020/12/03 06:13:34;;;;;;;101.72;49.70;;;;;;;;;;5053187;28;20036;-61
2020/12/03 06:16:22;;;;;;;100.80;52.20;;;;;;;;;;5053023;28;20044;-61
2020/12/03 06:18:57;;;;;;;106.93;53.88;;;;;;;;;;5051689;28;20634;-60
2020/12/03 06:21:40;;;;;;;98.20;46.03;;;;;;;;;;5052618;28;20074;-60
2020/12/03 06:24:09;;;;;;;86.38;42.42;;;;;;;;;;5053090;28;20036;-60
2020/12/03 06:26:49;;;;;;;73.60;40.13;;;;;;;;;;5052975;28;20010;-61
2020/12/03 06:29:15;;;;;;;;;;;;;;;;;;5053463;28;20131;-60
2020/12/03 06:31:59;;;;;;;74.75;40.97;;;;;;;;;;5037497;28;19909;-60
2020/12/03 06:34:30;;;;;;;79.88;43.95;;;;;;;;;;5033489;28;20053;-61
2020/12/03 06:36:59;;;;;;;81.57;44.85;;;;;;;;;;5035829;28;20427;-61
2020/12/03 06:39:34;;;;;;;77.80;41.20;;;;;;;;;;5053062;28;20405;-61
2020/12/03 06:42:07;;;;;;;80.28;42.45;;;;;;;;;;5052392;28;20156;-60
2020/12/03 06:44:36;;;;;;;69.03;40.40;;;;;;;;;;5053143;28;20032;-60
2020/12/03 06:47:01;;;;;;;77.15;42.90;;;;;;;;;;5053042;28;20021;-60
2020/12/03 06:49:27;;;;;;;86.45;49.47;;;;;;;;;;5053171;28;20036;-60
2020/12/03 06:51:52;;;;;;;80.53;43.97;;;;;;;;;;5053195;28;20027;-61
2020/12/03 06:54:31;;;;;;;72.78;42.53;;;;;;;;;;5053208;28;20514;-60
2020/12/03 06:57:07;;;;;;;79.03;46.30;;;;;;;;;;5052715;28;20036;-61
2020/12/03 07:00:09;;;;;;;72.43;39.05;;;;;;;;;;5053255;28;20135;-61
2020/12/03 07:02:50;;;;;;;99.97;51.40;;;;;;;;;;5030434;28;20045;-61
2020/12/03 07:05:33;;;;;;;91.18;46.95;;;;;;;;;;5050802;28;20510;-61
2020/12/03 07:08:12;;;;;;;70.50;40.20;;;;;;;;;;5053131;28;20471;-61
2020/12/03 07:10:56;;;;;;;71.50;40.45;;;;;;;;;;5052436;28;20381;-61
2020/12/03 07:13:28;;;;;;;80.13;44.20;;;;;;;;;;5043420;28;20021;-61
2020/12/03 07:16:12;;;;;;;68.30;40.85;;;;;;;;;;5032874;28;20029;-61
2020/12/03 07:18:57;;;;;;;71.40;41.83;;;;;;;;;;5036318;28;20456;-61
2020/12/03 07:21:25;;;;;;;79.65;41.72;;;;;;;;;;5051732;28;20021;-61
2020/12/03 07:23:51;;;;;;;69.15;40.10;;;;;;;;;;5051513;28;20028;-61
2020/12/03 07:26:30;;;;;;;70.15;38.72;;;;;;;;;;5052629;28;20391;-61
2020/12/03 07:28:59;;;;;;;64.10;37.22;;;;;;;;;;5052373;28;20367;-62
2020/12/03 07:31:31;;;;;;;66.38;38.03;;;;;;;;;;5052026;28;20037;-61
2020/12/03 07:34:15;;;;;;;74.00;39.53;;;;;;;;;;5055294;28;20528;-61
2020/12/03 07:36:41;;;;;;;66.03;36.33;;;;;;;;;;5053752;28;20037;-61
2020/12/03 07:39:10;;;;;;;63.78;37.33;;;;;;;;;;5055586;28;20013;-61
2020/12/03 07:41:40;;;;;;;65.75;37.00;;;;;;;;;;5055419;28;20036;-61
2020/12/03 07:44:24;;;;;;;76.22;41.55;;;;;;;;;;5056021;28;20029;-61
2020/12/03 07:46:51;;;;;;;81.10;48.30;;;;;;;;;;5054871;28;20021;-61
2020/12/03 07:49:36;;;;;;;74.63;41.80;;;;;;;;;;5056133;28;20021;-62
2020/12/03 07:52:18;;;;;;;76.78;42.13;;;;;;;;;;5055308;28;20044;-61
2020/12/03 07:54:44;;;;;;;71.68;40.85;;;;;;;;;;5055940;28;20115;-61
2020/12/03 07:57:23;;;;;;;70.78;39.25;;;;;;;;;;5037923;28;20100;-61
2020/12/03 07:59:48;;;;;;;74.95;44.28;;;;;;;;;;5055822;28;20035;-61
2020/12/03 08:02:32;;;;;;;72.50;40.22;;;;;;;;;;5055191;28;20041;-62
2020/12/03 08:04:58;;;;;;;71.50;42.13;;;;;;;;;;5055579;28;20040;-61
2020/12/03 08:07:26;;;;;;;136.60;100.30;;;;;;;;;;5055685;28;20025;-61
2020/12/03 08:09:52;;;;;;;62.30;35.38;;;;;;;;;;5055523;28;20119;-60
2020/12/03 08:12:21;;;;;;;61.75;33.72;;;;;;;;;;5055646;28;20100;-60
2020/12/03 08:14:47;;;;;;;58.88;34.75;;;;;;;;;;5055729;28;20047;-61
2020/12/03 08:17:16;;;;;;;62.47;39.22;;;;;;;;;;5055558;28;20036;-61
2020/12/03 08:20:04;;;;;;;65.90;37.15;;;;;;;;;;5055733;28;20112;-60
2020/12/03 08:22:30;;;;;;;56.05;34.05;;;;;;;;;;5051299;28;20045;-61
2020/12/03 08:25:14;;;;;;;51.97;32.17;;;;;;;;;;5052975;28;20021;-61
2020/12/03 08:27:40;;;;;;;61.08;34.00;;;;;;;;;;5054607;28;20036;-60
2020/12/03 08:30:24;;;;;;;63.05;36.53;;;;;;;;;;5054872;28;20455;-60
2020/12/03 08:33:01;;;;;;;49.22;30.75;;;;;;;;;;5054832;28;20036;-61
2020/12/03 08:35:26;;;;;;;51.95;31.27;;;;;;;;;;5055265;28;20029;-61
2020/12/03 08:37:52;;;;;;;59.88;34.10;;;;;;;;;;5053645;28;20490;-61
2020/12/03 08:40:17;;;;;;;44.83;28.23;;;;;;;;;;5054913;28;20022;-60
2020/12/03 08:42:43;;;;;;;52.97;33.88;;;;;;;;;;5054610;28;20008;-60
2020/12/03 08:45:08;;;;;;;60.42;36.70;;;;;;;;;;5054429;28;20425;-61
2020/12/03 08:47:41;;;;;;;47.55;30.25;;;;;;;;;;5054685;28;20352;-60
2020/12/03 08:50:13;;;;;;;45.80;29.45;;;;;;;;;;5054923;28;20059;-60
2020/12/03 08:52:40;;;;;;;43.58;28.48;;;;;;;;;;5054882;28;20056;-61
2020/12/03 08:55:06;;;;;;;46.53;30.80;;;;;;;;;;5054883;28;20075;-60
2020/12/03 08:57:33;;;;;;;54.47;32.85;;;;;;;;;;5054427;28;20387;-61
2020/12/03 09:00:00;;;;;;;51.65;32.25;;;;;;;;;;5054593;28;20028;-61
2020/12/03 09:02:30;;;;;;;40.55;26.80;;;;;;;;;;5052529;28;20044;-65
2020/12/03 09:04:57;;;;;;;42.80;26.77;;;;;;;;;;5053455;28;20029;-65
2020/12/03 09:07:24;;;;;;;40.13;25.05;;;;;;;;;;5054495;28;20486;-65
2020/12/03 09:09:51;;;;;;;41.28;24.98;;;;;;;;;;5054372;28;20041;-65
2020/12/03 09:12:25;;;;;;;37.65;24.75;;;;;;;;;;5054301;28;20020;-65
2020/12/03 09:14:53;;;;;;;40.08;24.95;;;;;;;;;;5052747;28;20399;-65
2020/12/03 09:17:23;;;;;;;37.17;24.17;;;;;;;;;;5054011;28;20074;-65
2020/12/03 09:19:50;;;;;;;40.53;27.17;;;;;;;;;;5054273;28;20025;-65
2020/12/03 09:22:16;;;;;;;43.22;26.08;;;;;;;;;;5052861;28;20055;-65
2020/12/03 09:24:46;;;;;;;38.88;25.63;;;;;;;;;;5052894;28;20138;-65
2020/12/03 09:27:13;;;;;;;40.58;26.33;;;;;;;;;;5052708;28;20031;-65
2020/12/03 09:29:38;;;;;;;43.72;28.02;;;;;;;;;;5053908;28;20086;-65
2020/12/03 09:32:05;;;;;;;35.90;23.33;;;;;;;;;;5054043;28;20033;-65
2020/12/03 09:34:34;;;;;;;36.92;24.45;;;;;;;;;;5054140;28;20467;-65
2020/12/03 09:37:01;;;;;;;40.63;29.38;;;;;;;;;;5053585;28;20391;-65
2020/12/03 09:39:27;;;;;;;39.92;26.35;;;;;;;;;;5053543;28;20100;-65
2020/12/03 09:41:54;;;;;;;47.05;32.53;;;;;;;;;;5053947;28;20515;-65
2020/12/03 09:44:21;;;;;;;35.63;23.55;;;;;;;;;;5053491;28;20024;-68
2020/12/03 09:46:50;;;;;;;36.22;22.25;;;;;;;;;;5053764;28;20029;-67
2020/12/03 09:49:16;;;;;;;48.17;27.85;;;;;;;;;;5053707;28;20021;-68
2020/12/03 09:51:43;;;;;;;43.97;27.27;;;;;;;;;;5053546;28;20028;-68
2020/12/03 09:54:09;;;;;;;37.83;22.92;;;;;;;;;;5053797;28;20013;-68
2020/12/03 09:56:39;;;;;;;74.13;35.00;;;;;;;;;;5052758;28;20021;-62
2020/12/03 09:59:05;;;;;;;41.38;25.42;;;;;;;;;;5053644;28;20041;-62
2020/12/03 10:01:56;;;;;;;51.97;31.23;;;;;;;;;;5053405;28;20104;-62
2020/12/03 10:04:22;;;;;;;;;;;;;;;;;;5053898;28;20029;-62
2020/12/03 10:07:09;;;;;;;111.15;72.07;;;;;;;;;;5053323;28;19904;-62
2020/12/03 10:09:54;;;;;;;39.88;25.42;;;;;;;;;;5053569;28;20032;-62
2020/12/03 10:12:25;;;;;;;47.58;28.65;;;;;;;;;;5053225;28;20087;-62
2020/12/03 10:15:07;;;;;;;33.92;21.70;;;;;;;;;;5053246;28;20108;-62
2020/12/03 10:17:37;;;;;;;34.22;22.00;;;;;;;;;;5053075;28;20032;-68
2020/12/03 10:20:03;;;;;;;31.67;20.92;;;;;;;;;;5053070;28;20107;-68
2020/12/03 10:22:44;;;;;;;21.83;13.70;;;;;;;;;;5052194;28;20017;-68
2020/12/03 10:25:16;;;;;;;29.63;15.95;;;;;;;;;;5053343;28;20120;-67
2020/12/03 10:27:43;;;;;;;35.63;19.35;;;;;;;;;;5053024;28;20040;-67
2020/12/03 10:30:10;;;;;;;29.30;16.35;;;;;;;;;;5053203;28;20013;-67
2020/12/03 10:32:37;;;;;;;53.78;28.80;;;;;;;;;;5052643;28;20040;-67
2020/12/03 10:35:04;;;;;;;73.53;40.10;;;;;;;;;;5052831;28;20025;-67
2020/12/03 10:37:37;;;;;;;125.13;58.10;;;;;;;;;;5052874;28;20120;-67
2020/12/03 10:40:17;;;;;;;39.25;18.65;;;;;;;;;;5053310;28;20025;-67
2020/12/03 10:42:45;;;;;;;161.38;46.00;;;;;;;;;;5053019;28;20025;-69
2020/12/03 10:45:15;;;;;;;136.32;46.55;;;;;;;;;;5053180;28;20021;-69
2020/12/03 10:47:53;;;;;;;25.92;15.60;;;;;;;;;;5053003;28;20033;-56
2020/12/03 10:50:19;;;;;;;41.00;22.20;;;;;;;;;;5053162;28;20025;-67
2020/12/03 10:52:45;;;;;;;192.13;76.72;;;;;;;;;;5053192;28;20028;-67
2020/12/03 10:55:20;;;;;;;28.67;16.38;;;;;;;;;;5052214;28;20032;-67
2020/12/03 10:57:55;;;;;;;47.78;24.08;;;;;;;;;;5052817;28;20112;-67
2020/12/03 11:00:21;;;;;;;71.43;37.33;;;;;;;;;;5052990;28;20021;-67
2020/12/03 11:02:51;;;;;;;61.25;34.65;;;;;;;;;;5052149;28;20043;-67
2020/12/03 11:05:17;;;;;;;47.47;31.70;;;;;;;;;;5052891;28;20029;-66
2020/12/03 11:07:52;;;;;;;41.00;25.13;;;;;;;;;;5055784;28;20380;-67
2020/12/03 11:10:19;;;;;;;35.17;21.10;;;;;;;;;;5056935;28;20063;-67
2020/12/03 11:12:46;;;;;;;41.50;28.30;;;;;;;;;;5056795;28;20400;-67
2020/12/03 11:15:13;;;;;;;40.30;24.30;;;;;;;;;;5055317;28;20467;-67
2020/12/03 11:17:46;;;;;;;50.47;27.98;;;;;;;;;;5056490;28;20086;-67
2020/12/03 11:20:13;;;;;;;26.05;17.10;;;;;;;;;;5056637;28;20032;-66
2020/12/03 11:22:43;;;;;;;31.70;20.05;;;;;;;;;;5056605;28;20017;-66
2020/12/03 11:25:12;;;;;;;24.63;15.00;;;;;;;;;;5056673;28;20103;-67
2020/12/03 11:27:37;;;;;;;40.50;23.67;;;;;;;;;;5055431;28;20498;-67
2020/12/03 11:30:15;;;;;;;35.97;21.58;;;;;;;;;;5056362;28;20110;-67
2020/12/03 11:32:48;;;;;;;29.48;18.52;;;;;;;;;;5056159;28;20037;-67
2020/12/03 11:35:27;;;;;;;41.05;24.10;;;;;;;;;;5056053;28;20028;-67
2020/12/03 11:37:54;;;;;;;41.00;24.40;;;;;;;;;;5050723;28;20033;-67
2020/12/03 11:40:32;;;;;;;39.67;24.88;;;;;;;;;;5048476;28;20025;-67
2020/12/03 11:46:03;;;;;;;41.80;27.73;;;;;;;;;;5038842;28;20061;-67
2020/12/03 11:48:40;;;;;;;36.80;23.33;;;;;;;;;;5049966;28;20102;-67
2020/12/03 11:51:05;;;;;;;47.40;29.63;;;;;;;;;;5047411;28;20475;-68
2020/12/03 11:53:32;;;;;;;58.33;34.40;;;;;;;;;;5049582;28;20095;-68
2020/12/03 11:55:57;;;;;;;51.20;30.88;;;;;;;;;;5037753;28;20085;-67
2020/12/03 11:58:30;;;;;;;48.38;30.13;;;;;;;;;;5045565;28;20025;-67
2020/12/03 12:01:11;;;;;;;52.42;30.95;;;;;;;;;;5046516;28;20475;-69
2020/12/03 12:03:40;;;;;;;51.80;30.58;;;;;;;;;;5045737;28;20436;-68
2020/12/03 12:06:15;;;;;;;53.63;31.13;;;;;;;;;;5034222;28;20480;-68
2020/12/03 12:09:12;;;;;;;43.20;29.05;;;;;;;;;;5034589;28;20029;-67
2020/12/03 12:11:36;;;;;;;53.42;32.40;;;;;;;;;;5045036;28;20400;-68
2020/12/03 12:14:03;;;;;;;69.78;38.65;;;;;;;;;;5054324;28;20029;-68
2020/12/03 12:16:28;;;;;;;56.55;32.47;;;;;;;;;;5052909;28;20024;-69
2020/12/03 12:18:55;;;;;;;58.20;33.80;;;;;;;;;;5054232;28;20033;-68
2020/12/03 12:21:20;;;;;;;52.30;30.05;;;;;;;;;;5054718;28;20013;-69
2020/12/03 12:23:46;;;;;;;44.22;25.23;;;;;;;;;;5042550;28;20026;-67
2020/12/03 12:26:12;;;;;;;43.55;24.90;;;;;;;;;;5050687;28;20454;-68
2020/12/03 12:28:39;;;;;;;42.78;25.17;;;;;;;;;;5050075;28;20491;-68
2020/12/03 12:31:04;;;;;;;38.83;23.92;;;;;;;;;;5049126;28;20021;-68
2020/12/03 12:33:30;;;;;;;40.20;24.85;;;;;;;;;;5051738;28;20033;-68
2020/12/03 12:35:55;;;;;;;42.08;26.17;;;;;;;;;;5052472;28;20142;-68
2020/12/03 12:38:21;;;;;;;40.28;24.15;;;;;;;;;;5053433;28;20021;-54
2020/12/03 12:40:47;;;;;;;43.50;25.60;;;;;;;;;;5053594;28;20063;-67
2020/12/03 12:43:13;;;;;;;47.53;28.95;;;;;;;;;;5053234;28;20024;-67
2020/12/03 12:45:39;;;;;;;81.68;48.33;;;;;;;;;;5053472;28;20032;-67
2020/12/03 12:48:04;;;;;;;49.05;30.40;;;;;;;;;;5053373;28;20061;-67
2020/12/03 12:50:30;;;;;;;64.75;42.55;;;;;;;;;;5053291;28;20032;-67
2020/12/03 12:52:55;;;;;;;47.97;31.80;;;;;;;;;;5053243;28;20078;-67
2020/12/03 12:55:21;;;;;;;46.45;29.20;;;;;;;;;;5053129;28;20025;-67
2020/12/03 12:57:50;;;;;;;48.25;30.42;;;;;;;;;;5052355;28;20037;-67
2020/12/03 13:00:17;;;;;;;42.22;27.35;;;;;;;;;;5054746;28;20013;-67
2020/12/03 13:02:42;;;;;;;37.45;23.77;;;;;;;;;;5053875;28;20037;-67
2020/12/03 13:05:09;;;;;;;44.78;26.65;;;;;;;;;;5055213;28;20085;-67
2020/12/03 13:07:40;;;;;;;47.83;26.67;;;;;;;;;;5054165;28;20064;-67
2020/12/03 13:10:06;;;;;;;43.25;24.85;;;;;;;;;;5054807;28;20036;-67
2020/12/03 13:12:32;;;;;;;44.35;27.13;;;;;;;;;;5054573;28;20391;-62
2020/12/03 13:14:58;;;;;;;40.97;23.52;;;;;;;;;;5054598;28;20037;-62
2020/12/03 13:17:23;;;;;;;44.63;27.92;;;;;;;;;;5052854;28;20376;-62
2020/12/03 13:19:50;;;;;;;49.20;28.45;;;;;;;;;;5054675;28;20021;-62
2020/12/03 13:22:15;;;;;;;48.88;26.02;;;;;;;;;;5054504;28;20095;-62
2020/12/03 13:24:42;;;;;;;46.47;27.75;;;;;;;;;;5054485;28;20028;-62
2020/12/03 13:27:09;;;;;;;69.07;35.25;;;;;;;;;;5054330;28;20017;-62
2020/12/03 13:29:35;;;;;;;47.58;28.08;;;;;;;;;;5035659;28;20052;-63
2020/12/03 13:32:00;;;;;;;45.20;26.40;;;;;;;;;;5054176;28;20021;-62
2020/12/03 13:34:26;;;;;;;47.95;27.65;;;;;;;;;;5054129;28;20107;-63
2020/12/03 13:36:53;;;;;;;50.70;29.42;;;;;;;;;;5052890;28;20005;-63
2020/12/03 13:39:19;;;;;;;50.47;31.40;;;;;;;;;;5054206;28;20450;-63
2020/12/03 13:41:45;;;;;;;50.25;27.70;;;;;;;;;;5054148;28;20023;-63
2020/12/03 13:44:10;;;;;;;45.03;27.63;;;;;;;;;;5053794;28;20075;-63
2020/12/03 13:46:39;;;;;;;47.78;26.20;;;;;;;;;;5053808;28;20375;-62
2020/12/03 13:49:05;;;;;;;51.55;30.30;;;;;;;;;;5052666;28;20064;-61
2020/12/03 13:51:31;;;;;;;59.63;36.95;;;;;;;;;;5053848;28;20071;-61
2020/12/03 13:53:56;;;;;;;56.22;34.05;;;;;;;;;;5041240;28;20068;-61
2020/12/03 13:56:22;;;;;;;56.38;34.75;;;;;;;;;;5052101;28;20021;-61
2020/12/03 13:58:48;;;;;;;56.30;34.83;;;;;;;;;;5053169;28;20033;-61
2020/12/03 14:01:14;;;;;;;61.47;39.80;;;;;;;;;;5048423;28;20048;-62
2020/12/03 14:03:40;;;;;;;60.00;40.15;;;;;;;;;;5040574;28;20033;-61
2020/12/03 14:06:06;;;;;;;47.25;29.70;;;;;;;;;;5053519;28;20475;-61
2020/12/03 14:08:33;;;;;;;50.78;32.13;;;;;;;;;;5046954;28;20068;-61
2020/12/03 14:10:58;;;;;;;56.10;35.67;;;;;;;;;;5044516;28;20044;-61
2020/12/03 14:13:24;;;;;;;55.22;36.90;;;;;;;;;;5052938;28;20083;-61
2020/12/03 14:15:51;;;;;;;51.47;31.52;;;;;;;;;;5048255;28;20029;-61
2020/12/03 14:18:17;;;;;;;51.95;33.88;;;;;;;;;;5047405;28;20065;-61
2020/12/03 14:20:42;;;;;;;52.17;32.55;;;;;;;;;;5045587;28;20052;-61
2020/12/03 14:23:08;;;;;;;51.42;32.72;;;;;;;;;;5051503;28;21269;-61
2020/12/03 14:25:33;;;;;;;52.35;33.90;;;;;;;;;;5046648;28;20109;-61
2020/12/03 14:27:59;;;;;;;57.85;36.85;;;;;;;;;;5038639;28;20039;-61
2020/12/03 14:30:24;;;;;;;53.72;35.40;;;;;;;;;;5040963;28;20058;-61
2020/12/03 14:32:50;;;;;;;52.08;33.40;;;;;;;;;;5053216;28;20033;-61